-12.61C
облачно с прояснениями
облачно с прояснениями
Дата и времяТемператураДавление, мм рт.ст.Влажность, %Осадки
МинимумМаксимум
04.12.2022 14:00-12.4C-12.4C77995переменная облачность
04.12.2022 17:00-12.24C-11.92C77995облачно с прояснениями
04.12.2022 20:00-11.51C-11.07C77895облачно с прояснениями
04.12.2022 23:00-9.95C-9.95C77892пасмурно
05.12.2022 02:00-9.37C-9.37C77888пасмурно
05.12.2022 05:00-9.76C-9.76C77886пасмурно
05.12.2022 08:00-10.57C-10.57C77786переменная облачность
05.12.2022 11:00-11.91C-11.91C77788переменная облачность
05.12.2022 14:00-12.34C-12.34C77689облачно с прояснениями
05.12.2022 17:00-12.67C-12.67C77590облачно с прояснениями
05.12.2022 20:00-14.39C-14.39C77492переменная облачность
05.12.2022 23:00-15.79C-15.79C77494переменная облачность
06.12.2022 02:00-16.34C-16.34C77394небольшая облачность
06.12.2022 05:00-16.24C-16.24C77194переменная облачность
06.12.2022 08:00-16.13C-16.13C77194облачно с прояснениями
06.12.2022 11:00-16.39C-16.39C77094облачно с прояснениями
06.12.2022 14:00-16.47C-16.47C76995облачно с прояснениями
06.12.2022 17:00-15.35C-15.35C76994облачно с прояснениями
06.12.2022 20:00-16.05C-16.05C76889переменная облачность
06.12.2022 23:00-12.72C-12.72C76788облачно с прояснениями
07.12.2022 02:00-12.49C-12.49C76688пасмурно
07.12.2022 05:00-13.33C-13.33C76591пасмурно
07.12.2022 08:00-12.93C-12.93C76389пасмурно
07.12.2022 11:00-12.6C-12.6C76288пасмурно
07.12.2022 14:00-12.78C-12.78C76189пасмурно
07.12.2022 17:00-15.96C-15.96C75990облачно с прояснениями
07.12.2022 20:00-15.32C-15.32C75988переменная облачность
07.12.2022 23:00-11.71C-11.71C75783облачно с прояснениями
08.12.2022 02:00-11.24C-11.24C75785пасмурно
08.12.2022 05:00-11.37C-11.37C75786пасмурно
08.12.2022 08:00-11.33C-11.33C75787пасмурно
08.12.2022 11:00-11.77C-11.77C75891пасмурно
08.12.2022 14:00-13.3C-13.3C75992пасмурно
08.12.2022 17:00-15.37C-15.37C76194пасмурно
08.12.2022 20:00-18.56C-18.56C76295небольшой снег
08.12.2022 23:00-20.77C-20.77C76489пасмурно
09.12.2022 02:00-22.99C-22.99C76590пасмурно
09.12.2022 05:00-25.9C-25.9C76795облачно с прояснениями
09.12.2022 08:00-25.3C-25.3C76894небольшая облачность
09.12.2022 11:00-26.43C-26.43C76990ясно
Дата и время наблюдения: 04.12.2022 13:04:38